sensor_id;sensor_type;location;lat;lon;timestamp;P1;durP1;ratioP1;P2;durP2;ratioP2
55435;SDS011;41307;53.142;6.430;2022-07-29T00:00:13;1.70;;;0.60;;
55435;SDS011;41307;53.142;6.430;2022-07-29T00:02:39;1.95;;;0.77;;
55435;SDS011;41307;53.142;6.430;2022-07-29T00:05:05;2.60;;;0.80;;
55435;SDS011;41307;53.142;6.430;2022-07-29T00:07:33;1.42;;;0.60;;
55435;SDS011;41307;53.142;6.430;2022-07-29T00:09:59;2.72;;;0.90;;
55435;SDS011;41307;53.142;6.430;2022-07-29T00:12:25;1.60;;;0.90;;
55435;SDS011;41307;53.142;6.430;2022-07-29T00:14:51;1.73;;;0.80;;
55435;SDS011;41307;53.142;6.430;2022-07-29T00:17:17;2.75;;;0.95;;
55435;SDS011;41307;53.142;6.430;2022-07-29T00:19:42;1.70;;;0.68;;
55435;SDS011;41307;53.142;6.430;2022-07-29T00:22:08;1.52;;;0.75;;
55435;SDS011;41307;53.142;6.430;2022-07-29T00:24:34;2.88;;;0.88;;
55435;SDS011;41307;53.142;6.430;2022-07-29T00:26:59;1.77;;;0.80;;
55435;SDS011;41307;53.142;6.430;2022-07-29T00:29:25;2.83;;;0.65;;
55435;SDS011;41307;53.142;6.430;2022-07-29T00:31:51;2.45;;;0.88;;
55435;SDS011;41307;53.142;6.430;2022-07-29T00:34:17;4.05;;;0.95;;
55435;SDS011;41307;53.142;6.430;2022-07-29T00:37:01;1.48;;;0.80;;
55435;SDS011;41307;53.142;6.430;2022-07-29T00:39:27;2.92;;;0.75;;
55435;SDS011;41307;53.142;6.430;2022-07-29T00:41:52;2.03;;;0.88;;
55435;SDS011;41307;53.142;6.430;2022-07-29T00:44:18;3.47;;;1.00;;
55435;SDS011;41307;53.142;6.430;2022-07-29T00:46:44;4.57;;;0.90;;
55435;SDS011;41307;53.142;6.430;2022-07-29T00:49:10;4.03;;;1.10;;
55435;SDS011;41307;53.142;6.430;2022-07-29T00:51:36;1.75;;;0.80;;
55435;SDS011;41307;53.142;6.430;2022-07-29T00:54:02;1.92;;;0.75;;
55435;SDS011;41307;53.142;6.430;2022-07-29T00:56:32;2.92;;;0.73;;
55435;SDS011;41307;53.142;6.430;2022-07-29T00:58:59;1.65;;;0.70;;
55435;SDS011;41307;53.142;6.430;2022-07-29T01:01:25;3.40;;;1.10;;
55435;SDS011;41307;53.142;6.430;2022-07-29T01:03:51;2.72;;;0.90;;
55435;SDS011;41307;53.142;6.430;2022-07-29T01:06:17;2.17;;;1.00;;
55435;SDS011;41307;53.142;6.430;2022-07-29T01:08:45;3.25;;;1.13;;
55435;SDS011;41307;53.142;6.430;2022-07-29T01:11:12;3.83;;;0.90;;
55435;SDS011;41307;53.142;6.430;2022-07-29T01:13:38;3.50;;;1.08;;
55435;SDS011;41307;53.142;6.430;2022-07-29T01:19:08;2.45;;;1.00;;
55435;SDS011;41307;53.142;6.430;2022-07-29T01:21:53;3.97;;;0.93;;
55435;SDS011;41307;53.142;6.430;2022-07-29T01:26:57;3.90;;;1.20;;
55435;SDS011;41307;53.142;6.430;2022-07-29T01:29:30;3.97;;;1.02;;
55435;SDS011;41307;53.142;6.430;2022-07-29T01:32:07;2.65;;;1.00;;
55435;SDS011;41307;53.142;6.430;2022-07-29T01:40:20;3.05;;;1.00;;
55435;SDS011;41307;53.142;6.430;2022-07-29T01:42:51;3.20;;;1.00;;
55435;SDS011;41307;53.142;6.430;2022-07-29T01:45:23;3.20;;;0.80;;
55435;SDS011;41307;53.142;6.430;2022-07-29T01:47:58;1.80;;;0.90;;
55435;SDS011;41307;53.142;6.430;2022-07-29T01:50:47;3.13;;;1.00;;
55435;SDS011;41307;53.142;6.430;2022-07-29T01:53:24;4.72;;;1.40;;
55435;SDS011;41307;53.142;6.430;2022-07-29T01:55:54;3.95;;;1.15;;
55435;SDS011;41307;53.142;6.430;2022-07-29T01:58:22;4.13;;;1.23;;
55435;SDS011;41307;53.142;6.430;2022-07-29T02:00:49;5.28;;;1.20;;
55435;SDS011;41307;53.142;6.430;2022-07-29T02:03:16;3.30;;;1.00;;
55435;SDS011;41307;53.142;6.430;2022-07-29T02:05:43;4.03;;;1.10;;
55435;SDS011;41307;53.142;6.430;2022-07-29T02:08:11;3.58;;;0.98;;
55435;SDS011;41307;53.142;6.430;2022-07-29T02:10:39;2.97;;;1.10;;
55435;SDS011;41307;53.142;6.430;2022-07-29T02:13:07;3.13;;;1.27;;
55435;SDS011;41307;53.142;6.430;2022-07-29T02:15:35;2.80;;;1.42;;
55435;SDS011;41307;53.142;6.430;2022-07-29T02:18:07;1.90;;;1.20;;
55435;SDS011;41307;53.142;6.430;2022-07-29T02:20:36;3.92;;;1.15;;
55435;SDS011;41307;53.142;6.430;2022-07-29T02:23:03;4.38;;;1.30;;
55435;SDS011;41307;53.142;6.430;2022-07-29T02:25:29;3.08;;;1.30;;
55435;SDS011;41307;53.142;6.430;2022-07-29T02:27:56;5.90;;;1.08;;
55435;SDS011;41307;53.142;6.430;2022-07-29T02:30:24;3.40;;;1.20;;
55435;SDS011;41307;53.142;6.430;2022-07-29T02:32:52;5.07;;;1.55;;
55435;SDS011;41307;53.142;6.430;2022-07-29T02:35:19;3.90;;;1.08;;
55435;SDS011;41307;53.142;6.430;2022-07-29T02:37:46;2.75;;;1.08;;
55435;SDS011;41307;53.142;6.430;2022-07-29T02:40:34;3.40;;;1.15;;
55435;SDS011;41307;53.142;6.430;2022-07-29T02:43:04;2.42;;;1.10;;
55435;SDS011;41307;53.142;6.430;2022-07-29T02:45:32;3.80;;;1.10;;
55435;SDS011;41307;53.142;6.430;2022-07-29T02:47:59;3.50;;;0.90;;
55435;SDS011;41307;53.142;6.430;2022-07-29T02:50:31;2.83;;;1.10;;
55435;SDS011;41307;53.142;6.430;2022-07-29T02:55:58;5.25;;;1.15;;
55435;SDS011;41307;53.142;6.430;2022-07-29T03:01:03;2.08;;;1.00;;
55435;SDS011;41307;53.142;6.430;2022-07-29T03:03:37;2.38;;;1.27;;
55435;SDS011;41307;53.142;6.430;2022-07-29T03:06:03;2.28;;;0.98;;
55435;SDS011;41307;53.142;6.430;2022-07-29T03:08:31;2.53;;;1.02;;
55435;SDS011;41307;53.142;6.430;2022-07-29T03:10:57;2.35;;;1.00;;
55435;SDS011;41307;53.142;6.430;2022-07-29T03:13:25;3.92;;;0.98;;
55435;SDS011;41307;53.142;6.430;2022-07-29T03:15:52;3.47;;;1.02;;
55435;SDS011;41307;53.142;6.430;2022-07-29T03:18:19;5.72;;;1.00;;
55435;SDS011;41307;53.142;6.430;2022-07-29T03:20:46;4.10;;;1.23;;
55435;SDS011;41307;53.142;6.430;2022-07-29T03:23:12;2.75;;;1.00;;
55435;SDS011;41307;53.142;6.430;2022-07-29T03:25:44;2.97;;;1.10;;
55435;SDS011;41307;53.142;6.430;2022-07-29T03:28:10;3.70;;;0.82;;
55435;SDS011;41307;53.142;6.430;2022-07-29T03:30:36;2.50;;;1.15;;
55435;SDS011;41307;53.142;6.430;2022-07-29T03:33:02;2.97;;;0.93;;
55435;SDS011;41307;53.142;6.430;2022-07-29T03:35:28;4.25;;;1.27;;
55435;SDS011;41307;53.142;6.430;2022-07-29T03:37:56;2.78;;;0.93;;
55435;SDS011;41307;53.142;6.430;2022-07-29T03:40:24;2.70;;;1.13;;
55435;SDS011;41307;53.142;6.430;2022-07-29T03:42:55;4.75;;;1.58;;
55435;SDS011;41307;53.142;6.430;2022-07-29T03:45:23;4.90;;;1.15;;
55435;SDS011;41307;53.142;6.430;2022-07-29T03:47:51;5.20;;;1.15;;
55435;SDS011;41307;53.142;6.430;2022-07-29T03:50:21;4.95;;;1.20;;
55435;SDS011;41307;53.142;6.430;2022-07-29T03:52:47;2.38;;;1.17;;
55435;SDS011;41307;53.142;6.430;2022-07-29T03:55:14;2.17;;;0.98;;
55435;SDS011;41307;53.142;6.430;2022-07-29T03:57:40;4.80;;;1.00;;
55435;SDS011;41307;53.142;6.430;2022-07-29T04:00:08;2.40;;;1.40;;
55435;SDS011;41307;53.142;6.430;2022-07-29T04:02:34;2.95;;;0.88;;
55435;SDS011;41307;53.142;6.430;2022-07-29T04:05:01;6.50;;;1.13;;
55435;SDS011;41307;53.142;6.430;2022-07-29T04:07:27;3.65;;;0.95;;
55435;SDS011;41307;53.142;6.430;2022-07-29T04:09:54;3.30;;;1.05;;
55435;SDS011;41307;53.142;6.430;2022-07-29T04:12:19;2.00;;;1.05;;
55435;SDS011;41307;53.142;6.430;2022-07-29T04:14:46;4.35;;;1.23;;
55435;SDS011;41307;53.142;6.430;2022-07-29T04:17:11;3.10;;;0.93;;
55435;SDS011;41307;53.142;6.430;2022-07-29T04:19:37;3.00;;;0.90;;
55435;SDS011;41307;53.142;6.430;2022-07-29T04:22:03;3.78;;;1.27;;
55435;SDS011;41307;53.142;6.430;2022-07-29T04:24:29;3.33;;;1.20;;
55435;SDS011;41307;53.142;6.430;2022-07-29T04:26:55;4.63;;;1.10;;
55435;SDS011;41307;53.142;6.430;2022-07-29T04:29:20;4.60;;;0.90;;
55435;SDS011;41307;53.142;6.430;2022-07-29T04:31:46;3.90;;;1.13;;
55435;SDS011;41307;53.142;6.430;2022-07-29T04:34:12;3.75;;;1.17;;
55435;SDS011;41307;53.142;6.430;2022-07-29T04:36:38;2.95;;;0.95;;
55435;SDS011;41307;53.142;6.430;2022-07-29T04:39:04;3.67;;;1.23;;
55435;SDS011;41307;53.142;6.430;2022-07-29T04:41:30;4.63;;;1.00;;
55435;SDS011;41307;53.142;6.430;2022-07-29T04:43:56;3.33;;;1.10;;
55435;SDS011;41307;53.142;6.430;2022-07-29T04:46:21;2.95;;;1.10;;
55435;SDS011;41307;53.142;6.430;2022-07-29T04:48:47;4.63;;;1.10;;
55435;SDS011;41307;53.142;6.430;2022-07-29T04:51:16;1.60;;;1.00;;
55435;SDS011;41307;53.142;6.430;2022-07-29T04:53:42;4.45;;;1.00;;
55435;SDS011;41307;53.142;6.430;2022-07-29T04:56:08;3.42;;;1.00;;
55435;SDS011;41307;53.142;6.430;2022-07-29T04:58:34;2.85;;;1.02;;
55435;SDS011;41307;53.142;6.430;2022-07-29T05:01:00;4.72;;;1.35;;
55435;SDS011;41307;53.142;6.430;2022-07-29T05:03:26;3.15;;;1.25;;
55435;SDS011;41307;53.142;6.430;2022-07-29T05:05:52;4.72;;;1.20;;
55435;SDS011;41307;53.142;6.430;2022-07-29T05:08:17;3.63;;;1.33;;
55435;SDS011;41307;53.142;6.430;2022-07-29T05:10:43;2.83;;;1.00;;
55435;SDS011;41307;53.142;6.430;2022-07-29T05:13:09;4.68;;;1.30;;
55435;SDS011;41307;53.142;6.430;2022-07-29T05:15:35;2.15;;;0.90;;
55435;SDS011;41307;53.142;6.430;2022-07-29T05:18:01;4.47;;;1.00;;
55435;SDS011;41307;53.142;6.430;2022-07-29T05:20:27;2.38;;;1.00;;
55435;SDS011;41307;53.142;6.430;2022-07-29T05:22:57;2.15;;;0.88;;
55435;SDS011;41307;53.142;6.430;2022-07-29T05:25:25;4.40;;;1.10;;
55435;SDS011;41307;53.142;6.430;2022-07-29T05:27:52;2.33;;;1.00;;
55435;SDS011;41307;53.142;6.430;2022-07-29T05:30:18;4.25;;;1.30;;
55435;SDS011;41307;53.142;6.430;2022-07-29T05:32:44;5.97;;;1.30;;
55435;SDS011;41307;53.142;6.430;2022-07-29T05:35:11;4.60;;;1.17;;
55435;SDS011;41307;53.142;6.430;2022-07-29T05:37:37;3.40;;;1.20;;
55435;SDS011;41307;53.142;6.430;2022-07-29T05:40:03;5.10;;;0.90;;
55435;SDS011;41307;53.142;6.430;2022-07-29T05:42:30;3.45;;;1.00;;
55435;SDS011;41307;53.142;6.430;2022-07-29T05:44:55;3.30;;;1.15;;
55435;SDS011;41307;53.142;6.430;2022-07-29T05:47:21;4.30;;;1.30;;
55435;SDS011;41307;53.142;6.430;2022-07-29T05:49:48;4.63;;;1.08;;
55435;SDS011;41307;53.142;6.430;2022-07-29T05:52:13;3.47;;;1.10;;
55435;SDS011;41307;53.142;6.430;2022-07-29T05:54:39;3.22;;;0.82;;
55435;SDS011;41307;53.142;6.430;2022-07-29T05:57:05;3.78;;;1.05;;
55435;SDS011;41307;53.142;6.430;2022-07-29T05:59:35;3.75;;;1.10;;
55435;SDS011;41307;53.142;6.430;2022-07-29T06:02:01;4.10;;;1.27;;
55435;SDS011;41307;53.142;6.430;2022-07-29T06:04:27;5.75;;;1.08;;
55435;SDS011;41307;53.142;6.430;2022-07-29T06:06:53;3.70;;;1.00;;
55435;SDS011;41307;53.142;6.430;2022-07-29T06:09:19;4.78;;;1.30;;
55435;SDS011;41307;53.142;6.430;2022-07-29T06:11:45;3.97;;;1.08;;
55435;SDS011;41307;53.142;6.430;2022-07-29T06:14:10;3.35;;;1.02;;
55435;SDS011;41307;53.142;6.430;2022-07-29T06:16:36;2.78;;;1.30;;
55435;SDS011;41307;53.142;6.430;2022-07-29T06:19:02;4.30;;;1.35;;
55435;SDS011;41307;53.142;6.430;2022-07-29T06:21:27;1.95;;;1.23;;
55435;SDS011;41307;53.142;6.430;2022-07-29T06:23:53;3.25;;;0.90;;
55435;SDS011;41307;53.142;6.430;2022-07-29T06:26:19;4.50;;;1.20;;
55435;SDS011;41307;53.142;6.430;2022-07-29T06:28:45;5.00;;;1.20;;
55435;SDS011;41307;53.142;6.430;2022-07-29T06:31:11;1.77;;;0.90;;
55435;SDS011;41307;53.142;6.430;2022-07-29T06:33:37;2.50;;;1.10;;
55435;SDS011;41307;53.142;6.430;2022-07-29T06:36:05;4.03;;;1.20;;
55435;SDS011;41307;53.142;6.430;2022-07-29T06:38:32;5.72;;;1.00;;
55435;SDS011;41307;53.142;6.430;2022-07-29T06:40:59;4.13;;;1.20;;
55435;SDS011;41307;53.142;6.430;2022-07-29T06:46:00;3.10;;;1.13;;
55435;SDS011;41307;53.142;6.430;2022-07-29T06:48:28;4.28;;;1.10;;
55435;SDS011;41307;53.142;6.430;2022-07-29T06:50:54;2.97;;;1.25;;
55435;SDS011;41307;53.142;6.430;2022-07-29T06:53:20;3.38;;;1.27;;
55435;SDS011;41307;53.142;6.430;2022-07-29T06:55:46;4.25;;;1.17;;
55435;SDS011;41307;53.142;6.430;2022-07-29T06:58:12;2.60;;;1.00;;
55435;SDS011;41307;53.142;6.430;2022-07-29T07:00:39;3.50;;;0.90;;
55435;SDS011;41307;53.142;6.430;2022-07-29T07:03:05;3.58;;;1.17;;
55435;SDS011;41307;53.142;6.430;2022-07-29T07:05:31;3.33;;;1.33;;
55435;SDS011;41307;53.142;6.430;2022-07-29T07:07:59;4.05;;;1.10;;
55435;SDS011;41307;53.142;6.430;2022-07-29T07:10:25;5.35;;;1.23;;
55435;SDS011;41307;53.142;6.430;2022-07-29T07:12:51;4.20;;;1.10;;
55435;SDS011;41307;53.142;6.430;2022-07-29T07:15:16;3.28;;;1.48;;
55435;SDS011;41307;53.142;6.430;2022-07-29T07:17:46;6.43;;;1.40;;
55435;SDS011;41307;53.142;6.430;2022-07-29T07:20:16;2.85;;;1.30;;
55435;SDS011;41307;53.142;6.430;2022-07-29T07:22:42;5.05;;;1.30;;
55435;SDS011;41307;53.142;6.430;2022-07-29T07:25:11;4.97;;;1.35;;
55435;SDS011;41307;53.142;6.430;2022-07-29T07:27:37;2.97;;;0.95;;
55435;SDS011;41307;53.142;6.430;2022-07-29T07:30:04;3.03;;;1.08;;
55435;SDS011;41307;53.142;6.430;2022-07-29T07:32:31;3.60;;;1.33;;
55435;SDS011;41307;53.142;6.430;2022-07-29T07:34:58;4.30;;;1.17;;
55435;SDS011;41307;53.142;6.430;2022-07-29T07:37:24;3.85;;;1.25;;
55435;SDS011;41307;53.142;6.430;2022-07-29T07:39:50;4.10;;;1.25;;
55435;SDS011;41307;53.142;6.430;2022-07-29T07:42:17;3.70;;;1.20;;
55435;SDS011;41307;53.142;6.430;2022-07-29T07:44:43;4.40;;;1.35;;
55435;SDS011;41307;53.142;6.430;2022-07-29T07:47:11;2.90;;;1.00;;
55435;SDS011;41307;53.142;6.430;2022-07-29T07:49:37;6.85;;;1.10;;
55435;SDS011;41307;53.142;6.430;2022-07-29T07:52:03;2.67;;;1.20;;
55435;SDS011;41307;53.142;6.430;2022-07-29T07:54:30;3.42;;;1.40;;
55435;SDS011;41307;53.142;6.430;2022-07-29T07:56:56;4.15;;;1.20;;
55435;SDS011;41307;53.142;6.430;2022-07-29T07:59:22;1.77;;;1.10;;
55435;SDS011;41307;53.142;6.430;2022-07-29T08:01:48;7.60;;;1.35;;
55435;SDS011;41307;53.142;6.430;2022-07-29T08:04:15;3.22;;;1.27;;
55435;SDS011;41307;53.142;6.430;2022-07-29T08:06:41;5.50;;;1.20;;
55435;SDS011;41307;53.142;6.430;2022-07-29T08:09:07;5.70;;;1.35;;
55435;SDS011;41307;53.142;6.430;2022-07-29T08:11:32;4.15;;;1.40;;
55435;SDS011;41307;53.142;6.430;2022-07-29T08:13:58;3.85;;;1.42;;
55435;SDS011;41307;53.142;6.430;2022-07-29T08:16:26;3.95;;;1.13;;
55435;SDS011;41307;53.142;6.430;2022-07-29T08:18:52;3.10;;;1.40;;
55435;SDS011;41307;53.142;6.430;2022-07-29T08:21:22;2.83;;;1.08;;
55435;SDS011;41307;53.142;6.430;2022-07-29T08:23:49;6.57;;;1.35;;
55435;SDS011;41307;53.142;6.430;2022-07-29T08:26:17;5.20;;;1.50;;
55435;SDS011;41307;53.142;6.430;2022-07-29T08:28:44;5.05;;;1.70;;
55435;SDS011;41307;53.142;6.430;2022-07-29T08:31:11;2.75;;;1.25;;
55435;SDS011;41307;53.142;6.430;2022-07-29T08:33:37;1.90;;;1.10;;
55435;SDS011;41307;53.142;6.430;2022-07-29T08:36:04;2.92;;;1.13;;
55435;SDS011;41307;53.142;6.430;2022-07-29T08:38:31;3.35;;;1.50;;
55435;SDS011;41307;53.142;6.430;2022-07-29T08:40:58;4.00;;;1.38;;
55435;SDS011;41307;53.142;6.430;2022-07-29T08:43:26;5.43;;;1.25;;
55435;SDS011;41307;53.142;6.430;2022-07-29T08:45:53;6.63;;;1.33;;
55435;SDS011;41307;53.142;6.430;2022-07-29T08:48:19;3.75;;;1.38;;
55435;SDS011;41307;53.142;6.430;2022-07-29T08:50:48;5.00;;;1.55;;
55435;SDS011;41307;53.142;6.430;2022-07-29T08:53:17;3.80;;;1.40;;
55435;SDS011;41307;53.142;6.430;2022-07-29T08:55:44;3.72;;;1.42;;
55435;SDS011;41307;53.142;6.430;2022-07-29T08:58:14;3.05;;;1.40;;
55435;SDS011;41307;53.142;6.430;2022-07-29T09:00:42;3.15;;;1.42;;
55435;SDS011;41307;53.142;6.430;2022-07-29T09:03:11;4.68;;;1.48;;
55435;SDS011;41307;53.142;6.430;2022-07-29T09:05:43;4.32;;;1.38;;
55435;SDS011;41307;53.142;6.430;2022-07-29T09:08:11;3.50;;;1.10;;
55435;SDS011;41307;53.142;6.430;2022-07-29T09:10:38;4.18;;;1.33;;
55435;SDS011;41307;53.142;6.430;2022-07-29T09:13:04;4.03;;;1.45;;
55435;SDS011;41307;53.142;6.430;2022-07-29T09:15:30;5.90;;;1.58;;
55435;SDS011;41307;53.142;6.430;2022-07-29T09:17:56;4.78;;;1.33;;
55435;SDS011;41307;53.142;6.430;2022-07-29T09:20:23;4.47;;;1.25;;
55435;SDS011;41307;53.142;6.430;2022-07-29T09:22:50;3.55;;;1.38;;
55435;SDS011;41307;53.142;6.430;2022-07-29T09:25:33;2.97;;;1.40;;
55435;SDS011;41307;53.142;6.430;2022-07-29T09:28:14;5.20;;;1.40;;
55435;SDS011;41307;53.142;6.430;2022-07-29T09:30:50;3.08;;;1.40;;
55435;SDS011;41307;53.142;6.430;2022-07-29T09:33:17;4.72;;;1.95;;
55435;SDS011;41307;53.142;6.430;2022-07-29T09:35:44;4.72;;;1.38;;
55435;SDS011;41307;53.142;6.430;2022-07-29T09:38:24;4.35;;;1.48;;
55435;SDS011;41307;53.142;6.430;2022-07-29T09:40:57;4.88;;;1.52;;
55435;SDS011;41307;53.142;6.430;2022-07-29T09:43:23;4.43;;;1.50;;
55435;SDS011;41307;53.142;6.430;2022-07-29T09:46:04;4.85;;;1.45;;
55435;SDS011;41307;53.142;6.430;2022-07-29T09:48:38;4.45;;;1.42;;
55435;SDS011;41307;53.142;6.430;2022-07-29T09:51:04;4.60;;;1.77;;
55435;SDS011;41307;53.142;6.430;2022-07-29T09:53:31;3.05;;;1.90;;
55435;SDS011;41307;53.142;6.430;2022-07-29T09:55:58;4.15;;;2.28;;
55435;SDS011;41307;53.142;6.430;2022-07-29T09:58:27;3.90;;;1.83;;
55435;SDS011;41307;53.142;6.430;2022-07-29T10:00:53;5.10;;;2.08;;
55435;SDS011;41307;53.142;6.430;2022-07-29T10:03:21;4.72;;;1.70;;
55435;SDS011;41307;53.142;6.430;2022-07-29T10:06:08;4.90;;;1.95;;
55435;SDS011;41307;53.142;6.430;2022-07-29T10:08:35;8.43;;;3.47;;
55435;SDS011;41307;53.142;6.430;2022-07-29T10:11:13;5.35;;;2.20;;
55435;SDS011;41307;53.142;6.430;2022-07-29T10:13:41;5.80;;;2.25;;
55435;SDS011;41307;53.142;6.430;2022-07-29T10:16:11;4.32;;;1.55;;
55435;SDS011;41307;53.142;6.430;2022-07-29T10:18:39;4.80;;;1.92;;
55435;SDS011;41307;53.142;6.430;2022-07-29T10:21:05;3.90;;;1.70;;
55435;SDS011;41307;53.142;6.430;2022-07-29T10:23:32;5.35;;;1.73;;
55435;SDS011;41307;53.142;6.430;2022-07-29T10:25:59;4.47;;;2.17;;
55435;SDS011;41307;53.142;6.430;2022-07-29T10:28:27;3.90;;;1.58;;
55435;SDS011;41307;53.142;6.430;2022-07-29T10:30:58;4.57;;;1.83;;
55435;SDS011;41307;53.142;6.430;2022-07-29T10:33:41;4.17;;;1.63;;
55435;SDS011;41307;53.142;6.430;2022-07-29T10:36:46;3.10;;;1.60;;
55435;SDS011;41307;53.142;6.430;2022-07-29T10:39:48;3.58;;;1.85;;
55435;SDS011;41307;53.142;6.430;2022-07-29T10:42:54;5.15;;;1.90;;
55435;SDS011;41307;53.142;6.430;2022-07-29T10:45:25;3.53;;;1.58;;
55435;SDS011;41307;53.142;6.430;2022-07-29T10:48:02;4.82;;;2.00;;
55435;SDS011;41307;53.142;6.430;2022-07-29T10:50:51;5.03;;;2.08;;
55435;SDS011;41307;53.142;6.430;2022-07-29T10:53:20;6.75;;;2.70;;
55435;SDS011;41307;53.142;6.430;2022-07-29T10:55:49;12.13;;;3.30;;
55435;SDS011;41307;53.142;6.430;2022-07-29T10:58:18;9.13;;;1.92;;
55435;SDS011;41307;53.142;6.430;2022-07-29T11:00:47;4.90;;;1.70;;
55435;SDS011;41307;53.142;6.430;2022-07-29T11:06:11;6.05;;;1.90;;
55435;SDS011;41307;53.142;6.430;2022-07-29T11:08:43;5.57;;;2.20;;
55435;SDS011;41307;53.142;6.430;2022-07-29T11:16:11;8.07;;;2.05;;
55435;SDS011;41307;53.142;6.430;2022-07-29T11:21:38;3.88;;;1.75;;
55435;SDS011;41307;53.142;6.430;2022-07-29T11:27:05;9.02;;;2.10;;
55435;SDS011;41307;53.142;6.430;2022-07-29T11:29:31;4.53;;;1.92;;
55435;SDS011;41307;53.142;6.430;2022-07-29T11:38:32;4.53;;;1.98;;
55435;SDS011;41307;53.142;6.430;2022-07-29T11:46:13;4.68;;;1.70;;
55435;SDS011;41307;53.142;6.430;2022-07-29T11:48:43;6.85;;;2.00;;
55435;SDS011;41307;53.142;6.430;2022-07-29T11:51:10;6.25;;;2.30;;
55435;SDS011;41307;53.142;6.430;2022-07-29T11:53:37;5.22;;;1.80;;
55435;SDS011;41307;53.142;6.430;2022-07-29T11:56:04;4.28;;;2.08;;
55435;SDS011;41307;53.142;6.430;2022-07-29T11:58:33;4.15;;;1.77;;
55435;SDS011;41307;53.142;6.430;2022-07-29T12:01:00;4.03;;;1.95;;
55435;SDS011;41307;53.142;6.430;2022-07-29T12:03:29;5.88;;;1.80;;
55435;SDS011;41307;53.142;6.430;2022-07-29T12:06:00;5.05;;;1.95;;
55435;SDS011;41307;53.142;6.430;2022-07-29T12:08:25;5.55;;;1.90;;
55435;SDS011;41307;53.142;6.430;2022-07-29T12:10:52;5.88;;;2.00;;
55435;SDS011;41307;53.142;6.430;2022-07-29T12:13:19;4.10;;;2.17;;
55435;SDS011;41307;53.142;6.430;2022-07-29T12:15:55;3.03;;;1.70;;
55435;SDS011;41307;53.142;6.430;2022-07-29T12:18:23;4.53;;;1.77;;
55435;SDS011;41307;53.142;6.430;2022-07-29T12:21:01;3.63;;;1.77;;
55435;SDS011;41307;53.142;6.430;2022-07-29T12:23:28;6.13;;;2.08;;
55435;SDS011;41307;53.142;6.430;2022-07-29T12:25:55;8.35;;;1.90;;
55435;SDS011;41307;53.142;6.430;2022-07-29T12:28:22;8.20;;;2.20;;
55435;SDS011;41307;53.142;6.430;2022-07-29T12:30:48;5.00;;;1.63;;
55435;SDS011;41307;53.142;6.430;2022-07-29T12:33:17;4.85;;;1.50;;
55435;SDS011;41307;53.142;6.430;2022-07-29T12:43:07;4.65;;;2.40;;
55435;SDS011;41307;53.142;6.430;2022-07-29T12:45:44;11.63;;;2.00;;
55435;SDS011;41307;53.142;6.430;2022-07-29T12:48:12;5.25;;;1.88;;
55435;SDS011;41307;53.142;6.430;2022-07-29T12:50:52;3.10;;;1.60;;
55435;SDS011;41307;53.142;6.430;2022-07-29T12:53:24;4.90;;;1.45;;
55435;SDS011;41307;53.142;6.430;2022-07-29T12:55:52;4.55;;;1.65;;
55435;SDS011;41307;53.142;6.430;2022-07-29T12:58:30;4.50;;;1.50;;
55435;SDS011;41307;53.142;6.430;2022-07-29T13:04:08;3.17;;;1.30;;
55435;SDS011;41307;53.142;6.430;2022-07-29T13:09:40;5.03;;;1.52;;
55435;SDS011;41307;53.142;6.430;2022-07-29T13:12:20;6.80;;;1.98;;
55435;SDS011;41307;53.142;6.430;2022-07-29T13:15:15;4.22;;;1.48;;
55435;SDS011;41307;53.142;6.430;2022-07-29T13:17:43;3.83;;;1.40;;
55435;SDS011;41307;53.142;6.430;2022-07-29T13:20:28;4.45;;;1.30;;
55435;SDS011;41307;53.142;6.430;2022-07-29T13:22:55;5.70;;;1.38;;
55435;SDS011;41307;53.142;6.430;2022-07-29T13:25:30;6.13;;;1.33;;
55435;SDS011;41307;53.142;6.430;2022-07-29T13:27:57;4.65;;;1.58;;
55435;SDS011;41307;53.142;6.430;2022-07-29T13:30:27;6.38;;;1.77;;
55435;SDS011;41307;53.142;6.430;2022-07-29T13:32:54;4.95;;;1.70;;
55435;SDS011;41307;53.142;6.430;2022-07-29T13:35:20;5.13;;;1.58;;
55435;SDS011;41307;53.142;6.430;2022-07-29T13:37:46;5.65;;;1.60;;
55435;SDS011;41307;53.142;6.430;2022-07-29T13:40:12;8.23;;;1.60;;
55435;SDS011;41307;53.142;6.430;2022-07-29T13:42:39;4.15;;;1.70;;
55435;SDS011;41307;53.142;6.430;2022-07-29T13:45:06;4.63;;;1.58;;
55435;SDS011;41307;53.142;6.430;2022-07-29T13:47:32;5.32;;;1.50;;
55435;SDS011;41307;53.142;6.430;2022-07-29T13:49:59;6.65;;;1.40;;
55435;SDS011;41307;53.142;6.430;2022-07-29T13:52:26;3.97;;;1.48;;
55435;SDS011;41307;53.142;6.430;2022-07-29T13:54:55;5.18;;;1.50;;
55435;SDS011;41307;53.142;6.430;2022-07-29T13:57:21;3.97;;;1.23;;
55435;SDS011;41307;53.142;6.430;2022-07-29T13:59:47;4.55;;;1.40;;
55435;SDS011;41307;53.142;6.430;2022-07-29T14:02:12;3.42;;;1.50;;
55435;SDS011;41307;53.142;6.430;2022-07-29T14:04:38;3.97;;;1.23;;
55435;SDS011;41307;53.142;6.430;2022-07-29T14:07:04;4.10;;;1.35;;
55435;SDS011;41307;53.142;6.430;2022-07-29T14:09:33;5.03;;;1.70;;
55435;SDS011;41307;53.142;6.430;2022-07-29T14:11:59;3.55;;;1.52;;
55435;SDS011;41307;53.142;6.430;2022-07-29T14:14:25;6.00;;;1.80;;
55435;SDS011;41307;53.142;6.430;2022-07-29T14:16:50;3.00;;;1.40;;
55435;SDS011;41307;53.142;6.430;2022-07-29T14:19:16;4.43;;;1.30;;
55435;SDS011;41307;53.142;6.430;2022-07-29T14:21:42;3.00;;;1.35;;
55435;SDS011;41307;53.142;6.430;2022-07-29T14:24:08;4.38;;;1.42;;
55435;SDS011;41307;53.142;6.430;2022-07-29T14:26:34;5.03;;;1.63;;
55435;SDS011;41307;53.142;6.430;2022-07-29T14:28:59;4.15;;;1.15;;
55435;SDS011;41307;53.142;6.430;2022-07-29T14:31:25;3.38;;;1.13;;
55435;SDS011;41307;53.142;6.430;2022-07-29T14:33:51;7.45;;;1.60;;
55435;SDS011;41307;53.142;6.430;2022-07-29T14:36:18;4.75;;;1.67;;
55435;SDS011;41307;53.142;6.430;2022-07-29T14:38:43;3.75;;;1.65;;
55435;SDS011;41307;53.142;6.430;2022-07-29T14:41:12;3.25;;;1.30;;
55435;SDS011;41307;53.142;6.430;2022-07-29T14:47:13;4.63;;;1.50;;
55435;SDS011;41307;53.142;6.430;2022-07-29T14:49:39;3.53;;;1.10;;
55435;SDS011;41307;53.142;6.430;2022-07-29T14:52:05;7.07;;;1.30;;
55435;SDS011;41307;53.142;6.430;2022-07-29T14:54:31;2.83;;;1.20;;
55435;SDS011;41307;53.142;6.430;2022-07-29T14:56:57;4.20;;;1.30;;
55435;SDS011;41307;53.142;6.430;2022-07-29T14:59:23;6.07;;;1.42;;
55435;SDS011;41307;53.142;6.430;2022-07-29T15:01:48;4.38;;;1.48;;
55435;SDS011;41307;53.142;6.430;2022-07-29T15:04:14;4.00;;;1.27;;
55435;SDS011;41307;53.142;6.430;2022-07-29T15:06:40;4.03;;;1.30;;
55435;SDS011;41307;53.142;6.430;2022-07-29T15:09:06;3.90;;;1.23;;
55435;SDS011;41307;53.142;6.430;2022-07-29T15:11:31;3.28;;;1.15;;
55435;SDS011;41307;53.142;6.430;2022-07-29T15:13:57;3.50;;;1.30;;
55435;SDS011;41307;53.142;6.430;2022-07-29T15:16:23;4.82;;;1.33;;
55435;SDS011;41307;53.142;6.430;2022-07-29T15:18:57;3.35;;;1.13;;
55435;SDS011;41307;53.142;6.430;2022-07-29T15:22:19;4.63;;;1.33;;
55435;SDS011;41307;53.142;6.430;2022-07-29T15:25:08;3.95;;;1.38;;
55435;SDS011;41307;53.142;6.430;2022-07-29T15:27:34;5.03;;;1.38;;
55435;SDS011;41307;53.142;6.430;2022-07-29T15:30:00;6.03;;;1.50;;
55435;SDS011;41307;53.142;6.430;2022-07-29T15:32:26;4.28;;;1.95;;
55435;SDS011;41307;53.142;6.430;2022-07-29T15:34:56;5.68;;;1.90;;
55435;SDS011;41307;53.142;6.430;2022-07-29T15:37:25;4.07;;;1.58;;
55435;SDS011;41307;53.142;6.430;2022-07-29T15:39:50;4.03;;;1.77;;
55435;SDS011;41307;53.142;6.430;2022-07-29T15:42:16;3.30;;;1.17;;
55435;SDS011;41307;53.142;6.430;2022-07-29T15:44:42;5.00;;;1.40;;
55435;SDS011;41307;53.142;6.430;2022-07-29T15:47:08;7.22;;;1.70;;
55435;SDS011;41307;53.142;6.430;2022-07-29T15:49:35;4.10;;;1.63;;
55435;SDS011;41307;53.142;6.430;2022-07-29T15:52:08;4.80;;;1.55;;
55435;SDS011;41307;53.142;6.430;2022-07-29T15:55:00;4.85;;;1.63;;
55435;SDS011;41307;53.142;6.430;2022-07-29T15:57:27;7.30;;;1.38;;